createdAt,value
2022-08-04T00:00:19.251Z,7.50
2022-08-04T00:01:05.541Z,7.68
2022-08-04T00:01:45.349Z,7.03
2022-08-04T00:02:27.521Z,7.60
2022-08-04T00:03:10.371Z,7.05
2022-08-04T00:03:51.437Z,7.22
2022-08-04T00:04:36.034Z,6.85
2022-08-04T00:05:13.362Z,7.85
2022-08-04T00:06:01.394Z,8.40
2022-08-04T00:06:51.978Z,7.38
2022-08-04T00:07:44.691Z,7.22
2022-08-04T00:08:26.219Z,7.32
2022-08-04T00:09:05.634Z,7.18
2022-08-04T00:09:44.650Z,7.40
2022-08-04T00:10:21.268Z,6.82
2022-08-04T00:10:59.971Z,7.40
2022-08-04T00:11:33.698Z,7.40
2022-08-04T00:12:10.579Z,6.75
2022-08-04T00:12:47.310Z,7.45
2022-08-04T00:13:23.440Z,6.88
2022-08-04T00:14:07.846Z,7.05
2022-08-04T00:14:48.097Z,6.70
2022-08-04T00:15:23.595Z,7.22
2022-08-04T00:15:59.267Z,7.78
2022-08-04T00:16:37.849Z,7.75
2022-08-04T00:17:13.744Z,8.20
2022-08-04T00:17:49.495Z,6.70
2022-08-04T00:18:27.636Z,7.28
2022-08-04T00:19:06.773Z,7.20
2022-08-04T00:19:42.157Z,7.38
2022-08-04T00:20:19.602Z,7.65
2022-08-04T00:21:00.487Z,6.55
2022-08-04T00:21:37.710Z,7.07
2022-08-04T00:22:14.363Z,8.10
2022-08-04T00:22:48.266Z,8.27
2022-08-04T00:23:20.458Z,7.00
2022-08-04T00:24:11.090Z,6.68
2022-08-04T00:24:45.495Z,7.05
2022-08-04T00:25:18.030Z,7.63
2022-08-04T00:25:52.831Z,7.00
2022-08-04T00:26:28.569Z,7.85
2022-08-04T00:27:01.215Z,8.18
2022-08-04T00:27:36.592Z,8.15
2022-08-04T00:28:09.422Z,7.80
2022-08-04T00:28:42.826Z,7.78
2022-08-04T00:29:18.323Z,8.48
2022-08-04T00:29:51.552Z,7.43
2022-08-04T00:30:25.706Z,7.57
2022-08-04T00:31:00.602Z,8.52
2022-08-04T00:31:57.019Z,8.43
2022-08-04T00:32:34.661Z,7.40
2022-08-04T00:33:07.613Z,7.88
2022-08-04T00:33:40.004Z,8.00
2022-08-04T00:34:18.497Z,8.35
2022-08-04T00:34:50.889Z,8.60
2022-08-04T00:35:25.028Z,8.20
2022-08-04T00:36:02.199Z,7.80
2022-08-04T00:36:35.025Z,8.40
2022-08-04T00:37:07.939Z,7.88
2022-08-04T00:37:43.368Z,10.20
2022-08-04T00:38:16.949Z,8.05
2022-08-04T00:38:49.988Z,8.40
2022-08-04T00:39:25.520Z,7.80
2022-08-04T00:39:58.396Z,7.65
2022-08-04T00:40:42.551Z,8.30
2022-08-04T00:41:28.799Z,8.50
2022-08-04T00:42:24.045Z,8.75
2022-08-04T00:43:11.570Z,12.35
2022-08-04T00:43:57.253Z,7.88
2022-08-04T00:44:42.830Z,8.15
2022-08-04T00:46:10.573Z,8.60
2022-08-04T00:46:52.987Z,8.95
2022-08-04T00:47:40.592Z,8.77
2022-08-04T00:48:19.994Z,8.63
2022-08-04T00:49:19.991Z,8.82
2022-08-04T00:50:08.511Z,7.45
2022-08-04T00:50:54.107Z,9.20
2022-08-04T00:51:38.393Z,8.80
2022-08-04T00:52:32.222Z,8.25
2022-08-04T00:53:11.358Z,8.73
2022-08-04T00:53:55.354Z,8.60
2022-08-04T00:54:40.822Z,8.30
2022-08-04T00:55:38.988Z,8.93
2022-08-04T00:56:31.679Z,8.30
2022-08-04T00:57:33.458Z,7.80
2022-08-04T00:58:24.174Z,8.45
2022-08-04T00:59:04.749Z,9.05
2022-08-04T00:59:48.471Z,8.85
2022-08-04T01:00:23.904Z,8.38
2022-08-04T01:01:01.559Z,7.63
2022-08-04T01:01:44.850Z,9.88
2022-08-04T01:02:31.750Z,7.72
2022-08-04T01:03:14.643Z,8.13
2022-08-04T01:03:56.995Z,8.25
2022-08-04T01:04:47.770Z,8.20
2022-08-04T01:05:28.348Z,8.63
2022-08-04T01:06:21.216Z,8.27
2022-08-04T01:07:13.024Z,9.05
2022-08-04T01:08:07.452Z,7.90
2022-08-04T01:08:50.055Z,8.25
2022-08-04T01:09:36.521Z,8.32
2022-08-04T01:10:17.709Z,8.48
2022-08-04T01:11:06.695Z,7.82
2022-08-04T01:11:58.110Z,7.65
2022-08-04T01:12:54.831Z,8.00
2022-08-04T01:13:53.575Z,8.32
2022-08-04T01:14:46.833Z,8.30
2022-08-04T01:15:26.552Z,7.95
2022-08-04T01:16:03.151Z,8.48
2022-08-04T01:16:48.837Z,9.15
2022-08-04T01:17:24.923Z,8.20
2022-08-04T01:18:05.527Z,7.70
2022-08-04T01:19:45.492Z,8.80
2022-08-04T01:20:24.710Z,8.60
2022-08-04T01:21:23.154Z,9.48
2022-08-04T01:22:27.542Z,8.00
2022-08-04T01:23:44.237Z,8.68
2022-08-04T01:24:32.360Z,8.10
2022-08-04T01:25:39.210Z,8.70
2022-08-04T01:26:53.874Z,9.15
2022-08-04T01:27:50.379Z,8.68
2022-08-04T01:28:34.325Z,8.40
2022-08-04T01:29:14.851Z,7.85
2022-08-04T01:29:55.580Z,9.10
2022-08-04T01:30:28.931Z,9.02
2022-08-04T01:31:08.059Z,8.70
2022-08-04T01:31:58.744Z,8.18
2022-08-04T01:32:35.514Z,8.48
2022-08-04T01:33:15.813Z,8.18
2022-08-04T01:34:46.175Z,8.80
2022-08-04T01:35:46.736Z,8.18
2022-08-04T01:36:20.811Z,9.43
2022-08-04T01:37:00.260Z,9.05
2022-08-04T01:37:51.490Z,9.13
2022-08-04T01:38:28.790Z,8.73
2022-08-04T01:39:23.102Z,9.20
2022-08-04T01:40:04.846Z,9.60
2022-08-04T01:40:38.421Z,9.32
2022-08-04T01:41:15.191Z,9.90
2022-08-04T01:41:58.511Z,9.30
2022-08-04T01:42:35.397Z,8.88
2022-08-04T01:43:10.226Z,9.50
2022-08-04T01:43:46.309Z,9.27
2022-08-04T01:44:26.491Z,11.48
2022-08-04T01:45:00.818Z,10.40
2022-08-04T01:45:36.927Z,10.60
2022-08-04T01:46:12.016Z,9.65
2022-08-04T01:46:46.598Z,9.75
2022-08-04T01:47:24.513Z,9.00
2022-08-04T01:47:58.075Z,9.45
2022-08-04T01:48:30.869Z,9.88
2022-08-04T01:49:08.305Z,9.55
2022-08-04T01:49:45.606Z,9.23
2022-08-04T01:50:20.414Z,9.02
2022-08-04T01:50:53.485Z,8.88
2022-08-04T01:51:26.549Z,8.82
2022-08-04T01:52:02.255Z,9.27
2022-08-04T01:52:36.356Z,9.45
2022-08-04T01:53:11.783Z,9.77
2022-08-04T01:53:44.972Z,9.40
2022-08-04T01:54:19.150Z,10.77
2022-08-04T01:54:54.270Z,9.15
2022-08-04T01:55:55.120Z,9.10
2022-08-04T01:56:25.273Z,9.77
2022-08-04T01:56:58.813Z,9.80
2022-08-04T01:57:45.967Z,10.05
2022-08-04T01:58:22.272Z,9.50
2022-08-04T01:58:58.160Z,10.32
2022-08-04T01:59:39.623Z,9.52
2022-08-04T02:00:13.617Z,11.20
2022-08-04T02:00:56.602Z,10.63
2022-08-04T02:01:31.663Z,10.07
2022-08-04T02:02:05.395Z,9.60
2022-08-04T02:02:37.900Z,9.63
2022-08-04T02:03:14.282Z,9.65
2022-08-04T02:04:20.503Z,10.40
2022-08-04T02:04:39.077Z,10.98
2022-08-04T02:05:14.417Z,9.73
2022-08-04T02:06:02.948Z,10.23
2022-08-04T02:06:44.358Z,9.70
2022-08-04T02:07:34.162Z,10.43
2022-08-04T02:08:16.687Z,9.85
2022-08-04T02:09:00.474Z,11.32
2022-08-04T02:09:54.399Z,11.40
2022-08-04T02:10:32.558Z,10.77
2022-08-04T02:11:14.122Z,10.00
2022-08-04T02:11:56.904Z,10.88
2022-08-04T02:12:44.825Z,10.68
2022-08-04T02:13:24.749Z,9.95
2022-08-04T02:14:09.309Z,11.23
2022-08-04T02:14:51.407Z,11.70
2022-08-04T02:15:33.133Z,10.73
2022-08-04T02:16:11.961Z,11.95
2022-08-04T02:16:47.002Z,10.75
2022-08-04T02:17:33.153Z,10.82
2022-08-04T02:18:48.338Z,10.57
2022-08-04T02:19:31.679Z,11.60
2022-08-04T02:20:09.577Z,12.25
2022-08-04T02:20:46.754Z,14.95
2022-08-04T02:21:23.450Z,11.07
2022-08-04T02:21:58.527Z,11.55
2022-08-04T02:22:34.104Z,11.50
2022-08-04T02:23:12.410Z,11.75
2022-08-04T02:23:47.115Z,12.02
2022-08-04T02:24:25.460Z,11.93
2022-08-04T02:25:07.843Z,11.02
2022-08-04T02:25:47.079Z,11.52
2022-08-04T02:26:23.930Z,11.38
2022-08-04T02:26:57.251Z,11.15
2022-08-04T02:28:00.244Z,11.18
2022-08-04T02:28:33.585Z,10.90
2022-08-04T02:29:15.832Z,10.75
2022-08-04T02:29:57.026Z,12.38
2022-08-04T02:30:42.353Z,11.02
2022-08-04T02:31:28.706Z,11.10
2022-08-04T02:32:07.697Z,11.30
2022-08-04T02:32:42.661Z,11.82
2022-08-04T02:33:20.244Z,12.05
2022-08-04T02:34:04.245Z,11.45
2022-08-04T02:34:47.892Z,11.10
2022-08-04T02:35:26.652Z,12.23
2022-08-04T02:36:05.630Z,11.68
2022-08-04T02:36:40.123Z,12.25
2022-08-04T02:37:13.240Z,10.82
2022-08-04T02:37:51.527Z,12.40
2022-08-04T02:38:31.889Z,11.52
2022-08-04T02:39:48.705Z,11.25
2022-08-04T02:40:22.246Z,11.43
2022-08-04T02:40:59.241Z,12.18
2022-08-04T02:41:34.014Z,13.57
2022-08-04T02:42:10.920Z,12.52
2022-08-04T02:42:46.132Z,12.00
2022-08-04T02:43:51.469Z,12.23
2022-08-04T02:44:17.014Z,11.80
2022-08-04T02:44:52.432Z,12.57
2022-08-04T02:45:26.578Z,12.02
2022-08-04T02:46:03.750Z,11.95
2022-08-04T02:46:53.096Z,13.00
2022-08-04T02:48:29.227Z,12.55
2022-08-04T02:48:31.086Z,12.13
2022-08-04T02:49:09.446Z,12.48
2022-08-04T02:49:42.543Z,12.40
2022-08-04T02:50:15.195Z,12.25
2022-08-04T02:51:06.014Z,13.18
2022-08-04T02:51:41.845Z,11.98
2022-08-04T02:52:19.404Z,11.40
2022-08-04T02:52:52.746Z,11.73
2022-08-04T02:53:27.222Z,12.13
2022-08-04T02:54:03.457Z,11.07
2022-08-04T02:54:39.310Z,11.35
2022-08-04T02:55:13.938Z,12.13
2022-08-04T02:55:52.416Z,12.38
2022-08-04T02:56:31.114Z,12.35
2022-08-04T02:57:08.620Z,12.15
2022-08-04T02:57:44.425Z,12.20
2022-08-04T02:58:20.308Z,13.05
2022-08-04T02:58:56.794Z,12.02
2022-08-04T02:59:39.760Z,13.20
2022-08-04T03:00:15.966Z,13.25
2022-08-04T03:00:50.911Z,12.20
2022-08-04T03:01:27.017Z,13.32
2022-08-04T03:01:59.263Z,13.13
2022-08-04T03:02:41.358Z,12.23
2022-08-04T03:03:26.703Z,12.18
2022-08-04T03:04:24.825Z,12.65
2022-08-04T03:05:05.352Z,12.35
2022-08-04T03:06:01.257Z,13.57
2022-08-04T03:07:14.376Z,14.25
2022-08-04T03:08:12.678Z,13.27
2022-08-04T03:09:25.851Z,12.00
2022-08-04T03:10:23.018Z,12.57
2022-08-04T03:11:16.690Z,15.23
2022-08-04T03:12:22.031Z,12.68
2022-08-04T03:13:31.078Z,12.02
2022-08-04T03:14:31.022Z,13.32
2022-08-04T03:15:32.071Z,12.77
2022-08-04T03:16:30.742Z,12.95
2022-08-04T03:18:23.097Z,12.85
2022-08-04T03:19:36.744Z,14.80
2022-08-04T03:20:41.732Z,12.77
2022-08-04T03:21:53.068Z,13.52
2022-08-04T03:23:12.577Z,13.98
2022-08-04T03:24:29.713Z,13.25
2022-08-04T03:25:24.360Z,14.07
2022-08-04T03:26:44.510Z,14.18
2022-08-04T03:27:44.697Z,13.88
2022-08-04T03:28:59.143Z,12.95
2022-08-04T03:29:55.590Z,14.38
2022-08-04T03:30:46.354Z,12.18
2022-08-04T03:31:48.810Z,13.18
2022-08-04T03:33:09.254Z,13.38
2022-08-04T03:33:52.512Z,18.15
2022-08-04T03:34:40.098Z,13.60
2022-08-04T03:35:45.992Z,13.95
2022-08-04T03:36:58.876Z,14.05
2022-08-04T03:38:16.188Z,13.13
2022-08-04T03:39:15.499Z,13.35
2022-08-04T03:40:14.191Z,12.73
2022-08-04T03:41:12.989Z,12.73
2022-08-04T03:42:24.932Z,13.25
2022-08-04T03:43:57.153Z,14.75
2022-08-04T03:44:52.669Z,15.65
2022-08-04T03:46:01.948Z,13.15
2022-08-04T03:46:54.917Z,13.45
2022-08-04T03:48:10.200Z,13.77
2022-08-04T03:49:12.437Z,12.50
2022-08-04T03:50:17.142Z,13.75
2022-08-04T03:51:35.455Z,15.18
2022-08-04T03:52:38.496Z,14.80
2022-08-04T03:53:26.345Z,14.30
2022-08-04T03:54:27.738Z,13.82
2022-08-04T03:55:43.502Z,15.60
2022-08-04T03:56:40.823Z,13.15
2022-08-04T03:57:50.433Z,16.77
2022-08-04T03:58:51.908Z,13.88
2022-08-04T04:00:02.207Z,18.70
2022-08-04T04:01:00.616Z,18.77
2022-08-04T04:02:06.898Z,14.90
2022-08-04T04:03:08.310Z,16.30
2022-08-04T04:04:12.381Z,15.20
2022-08-04T04:05:12.207Z,14.10
2022-08-04T04:06:30.544Z,14.70
2022-08-04T04:07:36.177Z,14.15
2022-08-04T04:08:32.975Z,16.80
2022-08-04T04:09:56.787Z,16.08
2022-08-04T04:10:49.609Z,17.88
2022-08-04T04:11:56.752Z,16.83
2022-08-04T04:12:54.794Z,14.68
2022-08-04T04:14:01.918Z,15.75
2022-08-04T04:14:50.220Z,15.55
2022-08-04T04:15:57.191Z,15.07
2022-08-04T04:16:58.394Z,14.93
2022-08-04T04:17:59.799Z,14.48
2022-08-04T04:18:46.819Z,14.35
2022-08-04T04:19:47.687Z,15.82
2022-08-04T04:20:53.681Z,13.20
2022-08-04T04:21:45.529Z,14.60
2022-08-04T04:22:47.482Z,17.55
2022-08-04T04:23:34.597Z,14.60
2022-08-04T04:24:39.116Z,14.45
2022-08-04T04:25:27.054Z,14.82
2022-08-04T04:26:18.830Z,15.93
2022-08-04T04:27:01.927Z,14.35
2022-08-04T04:28:45.898Z,15.75
2022-08-04T04:29:06.643Z,14.90
2022-08-04T04:30:01.531Z,15.70
2022-08-04T04:30:50.485Z,15.65
2022-08-04T04:31:54.021Z,15.07
2022-08-04T04:32:56.045Z,18.75
2022-08-04T04:33:44.210Z,14.70
2022-08-04T04:34:26.797Z,15.93
2022-08-04T04:35:19.343Z,15.73
2022-08-04T04:36:03.504Z,16.45
2022-08-04T04:36:56.170Z,14.50
2022-08-04T04:37:48.689Z,15.77
2022-08-04T04:38:52.916Z,15.73
2022-08-04T04:39:36.287Z,16.10
2022-08-04T04:40:29.043Z,17.17
2022-08-04T04:41:20.202Z,16.92
2022-08-04T04:42:09.472Z,15.60
2022-08-04T04:43:01.824Z,18.20
2022-08-04T04:43:56.623Z,15.82
2022-08-04T04:44:54.221Z,15.32
2022-08-04T04:45:31.336Z,16.48
2022-08-04T04:46:10.659Z,15.48
2022-08-04T04:47:03.935Z,16.60
2022-08-04T04:48:08.341Z,15.18
2022-08-04T04:48:51.065Z,14.93
2022-08-04T04:49:31.658Z,15.70
2022-08-04T04:50:10.673Z,15.02
2022-08-04T04:51:01.762Z,17.13
2022-08-04T04:51:42.653Z,14.38
2022-08-04T04:52:31.425Z,14.63
2022-08-04T04:53:12.352Z,15.82
2022-08-04T04:53:51.648Z,15.13
2022-08-04T04:54:40.636Z,17.02
2022-08-04T04:55:59.560Z,14.35
2022-08-04T04:56:41.156Z,19.48
2022-08-04T04:57:16.382Z,14.02
2022-08-04T04:57:55.442Z,15.07
2022-08-04T04:58:31.973Z,16.45
2022-08-04T04:59:10.222Z,15.02
2022-08-04T04:59:52.881Z,14.85
2022-08-04T05:00:34.783Z,14.63
2022-08-04T05:01:46.085Z,17.48
2022-08-04T05:02:49.888Z,15.10
2022-08-04T05:03:46.818Z,15.57
2022-08-04T05:04:54.830Z,15.35
2022-08-04T05:05:48.173Z,16.08
2022-08-04T05:06:39.537Z,17.40
2022-08-04T05:07:41.056Z,17.80
2022-08-04T05:08:45.266Z,14.82
2022-08-04T05:09:40.421Z,14.75
2022-08-04T05:10:27.858Z,15.77
2022-08-04T05:11:38.461Z,16.15
2022-08-04T05:14:33.221Z,15.52
2022-08-04T05:14:37.359Z,17.20
2022-08-04T05:15:23.878Z,16.02
2022-08-04T05:16:05.570Z,17.55
2022-08-04T05:16:46.228Z,16.73
2022-08-04T05:17:24.108Z,15.77
2022-08-04T05:18:02.350Z,15.15
2022-08-04T05:18:41.566Z,17.10
2022-08-04T05:19:24.246Z,17.20
2022-08-04T05:20:04.422Z,15.93
2022-08-04T05:20:40.976Z,17.38
2022-08-04T05:21:28.843Z,17.25
2022-08-04T05:22:09.223Z,17.92
2022-08-04T05:22:55.547Z,16.88
2022-08-04T05:23:31.200Z,16.33
2022-08-04T05:24:07.680Z,17.35
2022-08-04T05:24:45.938Z,15.85
2022-08-04T05:25:23.941Z,20.25
2022-08-04T05:26:02.891Z,17.80
2022-08-04T05:26:41.511Z,17.60
2022-08-04T05:27:17.524Z,14.82
2022-08-04T05:27:58.513Z,16.73
2022-08-04T05:28:36.983Z,21.77
2022-08-04T05:29:13.688Z,20.85
2022-08-04T05:29:56.145Z,18.73
2022-08-04T05:30:30.895Z,21.23
2022-08-04T05:31:13.283Z,16.60
2022-08-04T05:31:50.203Z,16.73
2022-08-04T05:32:29.873Z,16.02
2022-08-04T05:33:09.846Z,18.33
2022-08-04T05:33:51.635Z,17.67
2022-08-04T05:34:29.362Z,19.52
2022-08-04T05:35:10.429Z,14.75
2022-08-04T05:36:17.016Z,18.08
2022-08-04T05:36:45.783Z,17.52
2022-08-04T05:37:20.852Z,18.33
2022-08-04T05:38:01.367Z,20.55
2022-08-04T05:38:41.074Z,17.67
2022-08-04T05:39:19.144Z,19.15
2022-08-04T05:39:56.160Z,20.33
2022-08-04T05:40:30.956Z,19.92
2022-08-04T05:41:04.101Z,18.20
2022-08-04T05:41:45.620Z,18.40
2022-08-04T05:42:24.457Z,18.85
2022-08-04T05:42:57.661Z,16.55
2022-08-04T05:43:33.703Z,18.77
2022-08-04T05:44:08.908Z,19.40
2022-08-04T05:44:46.340Z,16.88
2022-08-04T05:45:25.576Z,19.13
2022-08-04T05:45:58.803Z,18.77
2022-08-04T05:46:31.802Z,18.77
2022-08-04T05:47:08.639Z,21.17
2022-08-04T05:47:41.019Z,21.05
2022-08-04T05:48:16.488Z,18.65
2022-08-04T05:48:52.372Z,17.75
2022-08-04T05:49:26.340Z,17.20
2022-08-04T05:50:03.332Z,14.43
2022-08-04T05:50:36.747Z,16.83
2022-08-04T05:51:11.344Z,19.65
2022-08-04T05:51:47.275Z,17.30
2022-08-04T05:52:21.402Z,18.10
2022-08-04T05:53:01.424Z,17.27
2022-08-04T05:53:37.564Z,18.17
2022-08-04T05:54:11.081Z,18.75
2022-08-04T05:54:43.975Z,17.70
2022-08-04T05:55:57.115Z,18.65
2022-08-04T05:56:14.729Z,17.70
2022-08-04T05:56:51.022Z,19.90
2022-08-04T05:57:24.071Z,18.88
2022-08-04T05:58:00.174Z,17.05
2022-08-04T05:58:33.125Z,19.83
2022-08-04T05:59:06.862Z,20.40
2022-08-04T05:59:46.705Z,19.80
2022-08-04T06:00:39.044Z,17.35
2022-08-04T06:01:15.584Z,17.20
2022-08-04T06:01:55.635Z,18.55
2022-08-04T06:02:30.652Z,18.27
2022-08-04T06:03:06.673Z,19.30
2022-08-04T06:03:43.593Z,21.83
2022-08-04T06:04:18.886Z,18.90
2022-08-04T06:04:55.307Z,18.08
2022-08-04T06:05:28.522Z,17.35
2022-08-04T06:06:01.848Z,19.63
2022-08-04T06:06:38.752Z,18.80
2022-08-04T06:07:11.399Z,17.58
2022-08-04T06:08:12.667Z,18.20
2022-08-04T06:08:39.278Z,17.05
2022-08-04T06:09:14.978Z,17.08
2022-08-04T06:09:47.155Z,17.88
2022-08-04T06:10:22.046Z,17.15
2022-08-04T06:11:07.840Z,17.30
2022-08-04T06:12:03.685Z,16.70
2022-08-04T06:12:41.124Z,17.17
2022-08-04T06:13:48.786Z,15.77
2022-08-04T06:14:18.646Z,19.23
2022-08-04T06:14:56.544Z,18.83
2022-08-04T06:15:33.162Z,19.58
2022-08-04T06:16:28.610Z,17.92
2022-08-04T06:18:33.435Z,16.83
2022-08-04T06:19:56.132Z,16.23
2022-08-04T06:20:02.377Z,15.75
2022-08-04T06:20:19.083Z,16.70
2022-08-04T06:20:59.407Z,15.80
2022-08-04T06:21:35.346Z,17.48
2022-08-04T06:22:11.288Z,16.67
2022-08-04T06:22:49.099Z,17.95
2022-08-04T06:23:28.133Z,18.55
2022-08-04T06:24:04.578Z,17.25
2022-08-04T06:24:42.488Z,19.65
2022-08-04T06:25:20.705Z,17.15
2022-08-04T06:25:59.977Z,16.15
2022-08-04T06:26:34.947Z,15.48
2022-08-04T06:27:11.611Z,16.60
2022-08-04T06:27:44.829Z,17.42
2022-08-04T06:28:19.755Z,17.45
2022-08-04T06:28:55.892Z,17.08
2022-08-04T06:29:34.696Z,16.90
2022-08-04T06:30:14.218Z,15.43
2022-08-04T06:30:49.928Z,16.52
2022-08-04T06:32:30.769Z,15.88
2022-08-04T06:32:47.840Z,15.40
2022-08-04T06:33:26.686Z,16.42
2022-08-04T06:34:06.089Z,18.55
2022-08-04T06:34:38.880Z,16.92
2022-08-04T06:35:11.502Z,15.25
2022-08-04T06:35:46.259Z,17.92
2022-08-04T06:36:18.877Z,17.33
2022-08-04T06:36:51.867Z,15.75
2022-08-04T06:37:43.322Z,14.07
2022-08-04T06:38:16.571Z,15.88
2022-08-04T06:38:58.422Z,15.27
2022-08-04T06:39:33.214Z,16.55
2022-08-04T06:40:29.771Z,16.15
2022-08-04T06:41:09.490Z,18.70
2022-08-04T06:42:17.331Z,14.75
2022-08-04T06:42:34.725Z,14.73
2022-08-04T06:43:10.651Z,17.52
2022-08-04T06:43:44.115Z,15.23
2022-08-04T06:44:22.337Z,16.05
2022-08-04T06:44:59.230Z,16.00
2022-08-04T06:45:35.190Z,14.77
2022-08-04T06:46:10.073Z,17.35
2022-08-04T06:46:43.879Z,14.45
2022-08-04T06:47:19.689Z,17.77
2022-08-04T06:47:53.692Z,16.08
2022-08-04T06:48:33.147Z,16.00
2022-08-04T06:49:11.395Z,16.48
2022-08-04T06:51:27.411Z,16.70
2022-08-04T06:51:28.204Z,14.82
2022-08-04T06:51:40.986Z,16.13
2022-08-04T06:52:23.125Z,16.48
2022-08-04T06:52:55.401Z,15.38
2022-08-04T06:53:28.089Z,15.38
2022-08-04T06:54:02.961Z,14.50
2022-08-04T06:54:35.140Z,18.52
2022-08-04T06:55:08.526Z,18.13
2022-08-04T06:55:45.594Z,17.30
2022-08-04T06:56:19.438Z,15.20
2022-08-04T06:56:56.098Z,16.00
2022-08-04T06:57:30.521Z,16.05
2022-08-04T06:58:03.762Z,14.40
2022-08-04T06:58:40.211Z,17.95
2022-08-04T06:59:14.407Z,15.93
2022-08-04T06:59:49.595Z,15.27
2022-08-04T07:00:24.462Z,16.83
2022-08-04T07:01:02.241Z,18.15
2022-08-04T07:01:37.954Z,13.55
2022-08-04T07:02:18.339Z,16.13
2022-08-04T07:03:26.337Z,16.98
2022-08-04T07:03:59.783Z,16.48
2022-08-04T07:04:35.045Z,15.25
2022-08-04T07:05:10.850Z,14.98
2022-08-04T07:05:43.541Z,15.35
2022-08-04T07:06:19.174Z,16.75
2022-08-04T07:06:51.406Z,16.75
2022-08-04T07:07:36.572Z,17.27
2022-08-04T07:08:20.494Z,19.23
2022-08-04T07:08:53.012Z,16.45
2022-08-04T07:09:25.523Z,17.40
2022-08-04T07:10:00.364Z,17.25
2022-08-04T07:10:32.878Z,16.67
2022-08-04T07:11:05.902Z,16.23
2022-08-04T07:11:44.585Z,16.13
2022-08-04T07:12:20.452Z,15.15
2022-08-04T07:12:53.984Z,16.80
2022-08-04T07:13:30.590Z,19.95
2022-08-04T07:14:05.136Z,16.83
2022-08-04T07:14:40.108Z,17.08
2022-08-04T07:15:14.496Z,16.10
2022-08-04T07:15:48.726Z,16.80
2022-08-04T07:16:30.706Z,15.82
2022-08-04T07:17:04.606Z,15.98
2022-08-04T07:17:39.759Z,15.45
2022-08-04T07:18:14.718Z,15.18
2022-08-04T07:18:47.024Z,16.65
2022-08-04T07:19:21.960Z,16.27
2022-08-04T07:19:56.858Z,17.17
2022-08-04T07:20:30.458Z,15.55
2022-08-04T07:21:11.343Z,15.57
2022-08-04T07:22:24.851Z,15.05
2022-08-04T07:22:39.138Z,16.38
2022-08-04T07:23:17.357Z,15.68
2022-08-04T07:23:50.253Z,17.08
2022-08-04T07:24:32.710Z,15.60
2022-08-04T07:25:12.888Z,15.82
2022-08-04T07:26:45.219Z,15.70
2022-08-04T07:27:47.804Z,15.88
2022-08-04T07:28:13.967Z,16.55
2022-08-04T07:28:49.665Z,16.42
2022-08-04T07:29:22.941Z,15.27
2022-08-04T07:29:58.770Z,15.68
2022-08-04T07:30:33.976Z,15.52
2022-08-04T07:31:09.771Z,17.27
2022-08-04T07:31:45.532Z,16.40
2022-08-04T07:32:20.117Z,17.88
2022-08-04T07:32:55.645Z,15.98
2022-08-04T07:33:28.493Z,15.70
2022-08-04T07:34:17.100Z,17.55
2022-08-04T07:34:59.648Z,17.48
2022-08-04T07:36:03.780Z,15.65
2022-08-04T07:36:30.107Z,16.42
2022-08-04T07:37:05.004Z,16.88
2022-08-04T07:37:39.994Z,17.83
2022-08-04T07:38:16.218Z,15.07
2022-08-04T07:38:51.321Z,14.93
2022-08-04T07:39:29.627Z,16.50
2022-08-04T07:40:02.511Z,15.00
2022-08-04T07:40:39.181Z,19.20
2022-08-04T07:42:07.995Z,15.48
2022-08-04T07:42:40.591Z,15.88
2022-08-04T07:43:15.901Z,15.27
2022-08-04T07:43:51.556Z,14.35
2022-08-04T07:44:23.986Z,15.10
2022-08-04T07:44:59.650Z,16.63
2022-08-04T07:45:32.835Z,15.38
2022-08-04T07:46:05.847Z,14.32
2022-08-04T07:46:40.746Z,15.32
2022-08-04T07:47:13.505Z,15.10
2022-08-04T07:48:05.260Z,14.82
2022-08-04T07:48:40.950Z,15.63
2022-08-04T07:49:14.071Z,15.65
2022-08-04T07:50:13.393Z,14.48
2022-08-04T07:50:45.972Z,16.02
2022-08-04T07:51:18.807Z,14.30
2022-08-04T07:51:54.082Z,13.43
2022-08-04T07:52:26.932Z,13.32
2022-08-04T07:53:52.984Z,13.65
2022-08-04T07:53:56.581Z,14.65
2022-08-04T07:54:32.557Z,14.02
2022-08-04T07:55:07.344Z,13.25
2022-08-04T07:55:42.474Z,15.77
2022-08-04T07:56:16.789Z,14.93
2022-08-04T07:56:49.515Z,13.73
2022-08-04T07:57:41.763Z,14.25
2022-08-04T07:58:16.176Z,13.95
2022-08-04T07:58:50.942Z,16.05
2022-08-04T07:59:23.313Z,12.48
2022-08-04T07:59:58.137Z,13.63
2022-08-04T08:00:30.809Z,13.02
2022-08-04T08:01:05.842Z,16.65
2022-08-04T08:01:38.519Z,14.27
2022-08-04T08:02:14.330Z,13.52
2022-08-04T08:02:50.577Z,13.50
2022-08-04T08:03:27.456Z,14.02
2022-08-04T08:04:01.756Z,13.85
2022-08-04T08:04:36.645Z,14.18
2022-08-04T08:05:14.319Z,14.48
2022-08-04T08:06:18.163Z,14.05
2022-08-04T08:06:43.442Z,12.73
2022-08-04T08:07:15.930Z,13.05
2022-08-04T08:07:54.724Z,13.60
2022-08-04T08:08:27.439Z,14.02
2022-08-04T08:09:12.541Z,14.23
2022-08-04T08:09:48.605Z,13.85
2022-08-04T08:10:20.948Z,14.68
2022-08-04T08:10:56.142Z,13.55
2022-08-04T08:12:37.958Z,13.60
2022-08-04T08:12:38.550Z,12.88
2022-08-04T08:13:16.335Z,12.30
2022-08-04T08:13:51.623Z,12.82
2022-08-04T08:14:24.946Z,14.13
2022-08-04T08:15:00.628Z,15.02
2022-08-04T08:15:33.584Z,14.05
2022-08-04T08:16:06.231Z,13.70
2022-08-04T08:16:41.076Z,12.13
2022-08-04T08:17:13.989Z,12.20
2022-08-04T08:17:58.812Z,13.55
2022-08-04T08:18:32.933Z,13.40
2022-08-04T08:19:05.645Z,13.60
2022-08-04T08:19:41.405Z,14.00
2022-08-04T08:20:29.502Z,12.93
2022-08-04T08:21:05.519Z,13.82
2022-08-04T08:21:59.570Z,13.82
2022-08-04T08:22:34.731Z,12.40
2022-08-04T08:23:09.255Z,13.30
2022-08-04T08:23:44.407Z,12.38
2022-08-04T08:24:16.984Z,12.30
2022-08-04T08:24:51.899Z,13.15
2022-08-04T08:25:24.521Z,12.55
2022-08-04T08:25:59.552Z,12.90
2022-08-04T08:26:32.020Z,12.85
2022-08-04T08:27:05.237Z,12.05
2022-08-04T08:27:40.916Z,13.20
2022-08-04T08:28:28.373Z,13.50
2022-08-04T08:29:03.271Z,12.35
2022-08-04T08:29:36.432Z,12.00
2022-08-04T08:30:12.795Z,16.33
2022-08-04T08:30:52.564Z,11.82
2022-08-04T08:31:57.555Z,12.10
2022-08-04T08:32:20.431Z,14.35
2022-08-04T08:32:55.291Z,11.23
2022-08-04T08:33:27.733Z,14.63
2022-08-04T08:34:01.458Z,13.02
2022-08-04T08:34:36.328Z,14.90
2022-08-04T08:35:09.564Z,12.50
2022-08-04T08:35:56.327Z,15.15
2022-08-04T08:36:36.042Z,11.52
2022-08-04T08:37:18.409Z,13.73
2022-08-04T08:37:56.528Z,14.25
2022-08-04T08:38:43.725Z,12.75
2022-08-04T08:39:24.574Z,11.35
2022-08-04T08:40:07.397Z,15.48
2022-08-04T08:40:48.906Z,12.10
2022-08-04T08:41:53.851Z,14.30
2022-08-04T08:42:52.642Z,11.93
2022-08-04T08:44:04.802Z,12.45
2022-08-04T08:45:17.612Z,12.70
2022-08-04T08:46:38.751Z,16.20
2022-08-04T08:47:30.056Z,11.13
2022-08-04T08:48:50.948Z,11.82
2022-08-04T08:50:00.250Z,10.90
2022-08-04T08:51:00.163Z,13.15
2022-08-04T08:51:46.838Z,10.93
2022-08-04T08:52:56.439Z,12.25
2022-08-04T08:53:50.613Z,13.25
2022-08-04T08:55:00.882Z,11.13
2022-08-04T08:55:43.011Z,13.20
2022-08-04T08:56:31.261Z,12.43
2022-08-04T08:57:20.537Z,14.85
2022-08-04T08:58:23.532Z,10.75
2022-08-04T08:59:15.454Z,11.82
2022-08-04T09:00:08.414Z,10.93
2022-08-04T09:00:51.595Z,13.63
2022-08-04T09:01:44.887Z,12.82
2022-08-04T09:02:45.452Z,11.55
2022-08-04T09:04:48.724Z,11.02
2022-08-04T09:05:37.615Z,10.77
2022-08-04T09:06:47.994Z,10.77
2022-08-04T09:07:46.516Z,12.35
2022-08-04T09:08:37.634Z,11.25
2022-08-04T09:09:40.784Z,12.02
2022-08-04T09:10:20.318Z,11.90
2022-08-04T09:11:01.660Z,11.40
2022-08-04T09:11:42.244Z,11.57
2022-08-04T09:12:26.081Z,11.07
2022-08-04T09:13:04.677Z,10.00
2022-08-04T09:13:47.697Z,9.75
2022-08-04T09:14:26.338Z,10.65
2022-08-04T09:15:05.562Z,11.70
2022-08-04T09:15:51.155Z,10.48
2022-08-04T09:16:36.130Z,11.88
2022-08-04T09:17:24.743Z,13.35
2022-08-04T09:18:02.403Z,11.88
2022-08-04T09:18:49.908Z,10.73
2022-08-04T09:19:38.228Z,11.55
2022-08-04T09:20:22.027Z,10.80
2022-08-04T09:21:00.877Z,10.85
2022-08-04T09:21:50.759Z,11.02
2022-08-04T09:22:30.011Z,9.82
2022-08-04T09:23:16.774Z,10.00
2022-08-04T09:24:00.515Z,9.88
2022-08-04T09:24:57.572Z,9.88
2022-08-04T09:25:37.711Z,10.73
2022-08-04T09:26:22.116Z,11.68
2022-08-04T09:27:00.691Z,10.00
2022-08-04T09:27:47.235Z,10.25
2022-08-04T09:28:50.771Z,13.27
2022-08-04T09:29:23.341Z,12.70
2022-08-04T09:30:04.679Z,12.50
2022-08-04T09:30:44.026Z,12.20
2022-08-04T09:31:21.287Z,12.32
2022-08-04T09:32:07.964Z,10.25
2022-08-04T09:32:47.739Z,12.98
2022-08-04T09:33:44.446Z,10.18